createdAt,value
2023-01-05T05:00:37.540Z,1003.15
2023-01-05T05:01:37.573Z,1003.17
2023-01-05T05:02:37.574Z,1003.12
2023-01-05T05:03:37.589Z,1003.11
2023-01-05T05:04:37.452Z,1003.17
2023-01-05T05:05:37.473Z,1003.12
2023-01-05T05:06:37.450Z,1003.14
2023-01-05T05:07:37.471Z,1003.16
2023-01-05T05:08:37.412Z,1003.13
2023-01-05T05:09:37.398Z,1003.13
2023-01-05T05:10:37.408Z,1003.14
2023-01-05T05:11:37.396Z,1003.19
2023-01-05T05:12:37.401Z,1003.24
2023-01-05T05:13:37.364Z,1003.28
2023-01-05T05:14:37.347Z,1003.22
2023-01-05T05:15:37.427Z,1003.11
2023-01-05T05:16:37.358Z,1003.12
2023-01-05T05:17:37.325Z,1003.11
2023-01-05T05:18:37.296Z,1003.10
2023-01-05T05:19:37.294Z,1003.10
2023-01-05T05:20:37.287Z,1003.08
2023-01-05T05:21:37.266Z,1003.12
2023-01-05T05:22:37.286Z,1003.11
2023-01-05T05:23:37.264Z,1003.15
2023-01-05T05:24:37.259Z,1003.04
2023-01-05T05:25:37.228Z,1003.04
2023-01-05T05:26:37.224Z,1003.14
2023-01-05T05:27:37.198Z,1003.20
2023-01-05T05:28:37.206Z,1003.20
2023-01-05T05:29:37.202Z,1003.25
2023-01-05T05:30:37.168Z,1003.19
2023-01-05T05:31:37.258Z,1003.21
2023-01-05T05:32:43.788Z,1003.22
2023-01-05T05:33:38.156Z,1003.18
2023-01-05T05:34:37.153Z,1003.19
2023-01-05T05:35:37.128Z,1003.24
2023-01-05T05:36:37.106Z,1003.25
2023-01-05T05:37:37.128Z,1003.30
2023-01-05T05:38:37.082Z,1003.26
2023-01-05T05:39:37.091Z,1003.29
2023-01-05T05:40:37.085Z,1003.34
2023-01-05T05:41:37.058Z,1003.31
2023-01-05T05:42:37.061Z,1003.34
2023-01-05T05:43:37.042Z,1003.33
2023-01-05T05:44:37.038Z,1003.35
2023-01-05T05:45:37.014Z,1003.36
2023-01-05T05:46:37.183Z,1003.31
2023-01-05T05:47:36.993Z,1003.28
2023-01-05T05:48:37.009Z,1003.35
2023-01-05T05:49:36.985Z,1003.42
2023-01-05T05:50:36.952Z,1003.42
2023-01-05T05:51:36.947Z,1003.49
2023-01-05T05:52:36.935Z,1003.44
2023-01-05T05:53:36.969Z,1003.43
2023-01-05T05:54:36.908Z,1003.39
2023-01-05T05:55:36.900Z,1003.42
2023-01-05T05:56:36.912Z,1003.44
2023-01-05T05:57:36.884Z,1003.45
2023-01-05T05:58:36.860Z,1003.42
2023-01-05T05:59:36.867Z,1003.44
2023-01-05T06:00:36.848Z,1003.49
2023-01-05T06:01:37.029Z,1003.52
2023-01-05T06:02:37.041Z,1003.50
2023-01-05T06:03:36.883Z,1003.45
2023-01-05T06:04:36.815Z,1003.50
2023-01-05T06:05:36.807Z,1003.53
2023-01-05T06:06:36.789Z,1003.57
2023-01-05T06:07:36.792Z,1003.58
2023-01-05T06:08:36.761Z,1003.49
2023-01-05T06:09:36.744Z,1003.61
2023-01-05T06:10:36.734Z,1003.58
2023-01-05T06:11:36.759Z,1003.62
2023-01-05T06:12:36.730Z,1003.60
2023-01-05T06:13:36.731Z,1003.67
2023-01-05T06:14:36.698Z,1003.72
2023-01-05T06:15:36.695Z,1003.73
2023-01-05T06:16:36.731Z,1003.69
2023-01-05T06:17:36.693Z,1003.76
2023-01-05T06:18:36.674Z,1003.79
2023-01-05T06:19:36.660Z,1003.73
2023-01-05T06:20:36.646Z,1003.72
2023-01-05T06:21:36.616Z,1003.85
2023-01-05T06:22:36.618Z,1003.73
2023-01-05T06:23:36.596Z,1003.72
2023-01-05T06:24:36.629Z,1003.68
2023-01-05T06:25:36.580Z,1003.67
2023-01-05T06:26:36.577Z,1003.68
2023-01-05T06:27:36.549Z,1003.68
2023-01-05T06:28:36.558Z,1003.67
2023-01-05T06:29:36.529Z,1003.71
2023-01-05T06:30:36.537Z,1003.73
2023-01-05T06:31:36.550Z,1003.74
2023-01-05T06:32:36.509Z,1003.75
2023-01-05T06:33:36.507Z,1003.81
2023-01-05T06:34:36.475Z,1003.77
2023-01-05T06:35:36.481Z,1003.77
2023-01-05T06:36:36.509Z,1003.77
2023-01-05T06:37:36.450Z,1003.84
2023-01-05T06:38:36.442Z,1003.82
2023-01-05T06:39:36.452Z,1003.84
2023-01-05T06:40:36.407Z,1003.87
2023-01-05T06:41:36.416Z,1003.91
2023-01-05T06:42:36.424Z,1003.91
2023-01-05T06:43:36.409Z,1003.91
2023-01-05T06:44:36.365Z,1003.88
2023-01-05T06:45:36.391Z,1003.87
2023-01-05T06:46:36.345Z,1003.87
2023-01-05T06:47:36.364Z,1003.89
2023-01-05T06:48:36.337Z,1003.91
2023-01-05T06:49:36.323Z,1003.97
2023-01-05T06:50:36.359Z,1003.93
2023-01-05T06:51:36.304Z,1003.95
2023-01-05T06:52:36.361Z,1003.94
2023-01-05T06:53:36.280Z,1003.99
2023-01-05T06:54:36.279Z,1003.95
2023-01-05T06:55:36.244Z,1003.92
2023-01-05T06:56:36.266Z,1003.98
2023-01-05T06:57:36.243Z,1003.92
2023-01-05T06:58:36.211Z,1004.02
2023-01-05T06:59:36.211Z,1004.02
2023-01-05T07:00:36.246Z,1004.03
2023-01-05T07:01:36.346Z,1004.06
2023-01-05T07:02:36.201Z,1004.02
2023-01-05T07:03:36.173Z,1004.07
2023-01-05T07:04:36.168Z,1004.11
2023-01-05T07:05:36.143Z,1004.10
2023-01-05T07:06:36.206Z,1004.15
2023-01-05T07:07:36.141Z,1004.15
2023-01-05T07:08:36.132Z,1004.14
2023-01-05T07:09:36.105Z,1004.14
2023-01-05T07:10:36.102Z,1004.14
2023-01-05T07:11:36.095Z,1004.15
2023-01-05T07:12:36.067Z,1004.16
2023-01-05T07:13:36.056Z,1004.19
2023-01-05T07:14:36.087Z,1004.25
2023-01-05T07:15:36.046Z,1004.19
2023-01-05T07:16:36.114Z,1004.21
2023-01-05T07:17:36.065Z,1004.18
2023-01-05T07:18:35.995Z,1004.18
2023-01-05T07:19:36.010Z,1004.28
2023-01-05T07:20:35.976Z,1004.32
2023-01-05T07:21:35.994Z,1004.29
2023-01-05T07:22:35.989Z,1004.28
2023-01-05T07:23:35.972Z,1004.28
2023-01-05T07:24:35.983Z,1004.22
2023-01-05T07:25:35.965Z,1004.32
2023-01-05T07:26:35.915Z,1004.30
2023-01-05T07:27:35.925Z,1004.32
2023-01-05T07:28:35.891Z,1004.29
2023-01-05T07:29:35.903Z,1004.34
2023-01-05T07:30:35.870Z,1004.37
2023-01-05T07:31:35.986Z,1004.35
2023-01-05T07:32:35.849Z,1004.36
2023-01-05T07:33:39.520Z,1004.40
2023-01-05T07:34:35.839Z,1004.36
2023-01-05T07:35:35.915Z,1004.44
2023-01-05T07:36:35.801Z,1004.44
2023-01-05T07:37:35.812Z,1004.41
2023-01-05T07:38:35.790Z,1004.46
2023-01-05T07:39:35.777Z,1004.46
2023-01-05T07:40:35.777Z,1004.52
2023-01-05T07:41:35.810Z,1004.52
2023-01-05T07:42:35.767Z,1004.57
2023-01-05T07:43:35.782Z,1004.53
2023-01-05T07:44:35.714Z,1004.53
2023-01-05T07:45:35.762Z,1004.55
2023-01-05T07:46:35.696Z,1004.57
2023-01-05T07:47:35.730Z,1004.54
2023-01-05T07:48:35.692Z,1004.57
2023-01-05T07:49:35.667Z,1004.60
2023-01-05T07:50:35.669Z,1004.59
2023-01-05T07:51:35.701Z,1004.57
2023-01-05T07:52:35.654Z,1004.66
2023-01-05T07:53:43.326Z,1004.65
2023-01-05T07:54:36.612Z,1004.67
2023-01-05T07:55:35.625Z,1004.65
2023-01-05T07:56:35.625Z,1004.63
2023-01-05T07:57:35.592Z,1004.66
2023-01-05T07:58:35.628Z,1004.68
2023-01-05T07:59:35.608Z,1004.67
2023-01-05T08:00:35.547Z,1004.67
2023-01-05T08:01:35.658Z,1004.70
2023-01-05T08:02:36.165Z,1004.80
2023-01-05T08:03:35.512Z,1004.76
2023-01-05T08:04:35.640Z,1004.78
2023-01-05T08:05:35.544Z,1004.81
2023-01-05T08:06:35.498Z,1004.81
2023-01-05T08:07:35.499Z,1004.87
2023-01-05T08:08:35.484Z,1004.84
2023-01-05T08:09:35.476Z,1004.92
2023-01-05T08:10:35.434Z,1004.90
2023-01-05T08:11:35.468Z,1004.88
2023-01-05T08:12:35.425Z,1004.95
2023-01-05T08:13:35.398Z,1004.91
2023-01-05T08:14:35.392Z,1004.90
2023-01-05T08:15:35.381Z,1004.95
2023-01-05T08:16:35.465Z,1004.97
2023-01-05T08:17:35.429Z,1004.98
2023-01-05T08:18:35.349Z,1005.01
2023-01-05T08:19:35.338Z,1005.03
2023-01-05T08:20:35.329Z,1004.99
2023-01-05T08:21:35.343Z,1005.01
2023-01-05T08:22:35.301Z,1005.03
2023-01-05T08:23:35.333Z,1005.00
2023-01-05T08:24:35.351Z,1005.01
2023-01-05T08:25:35.293Z,1005.06
2023-01-05T08:26:35.366Z,1005.07
2023-01-05T08:27:35.275Z,1005.01
2023-01-05T08:28:35.905Z,1005.01
2023-01-05T08:29:35.262Z,1005.03
2023-01-05T08:30:35.769Z,1005.03
2023-01-05T08:31:35.322Z,1005.01
2023-01-05T08:32:35.198Z,1005.03
2023-01-05T08:33:35.210Z,1005.06
2023-01-05T08:34:36.350Z,1005.03
2023-01-05T08:35:35.165Z,1005.07
2023-01-05T08:36:35.154Z,1005.09
2023-01-05T08:37:35.172Z,1005.07
2023-01-05T08:38:35.194Z,1005.11
2023-01-05T08:39:38.981Z,1005.09
2023-01-05T08:40:35.138Z,1005.04
2023-01-05T08:41:35.117Z,1005.05
2023-01-05T08:42:35.102Z,1005.02
2023-01-05T08:43:35.101Z,1005.02
2023-01-05T08:44:35.083Z,1005.04
2023-01-05T08:45:35.088Z,1005.04
2023-01-05T08:46:35.062Z,1005.09
2023-01-05T08:47:35.135Z,1005.11
2023-01-05T08:48:35.021Z,1005.07
2023-01-05T08:49:35.041Z,1005.12
2023-01-05T08:50:35.724Z,1005.17
2023-01-05T08:51:35.743Z,1005.15
2023-01-05T08:52:35.795Z,1005.07
2023-01-05T08:53:36.298Z,1005.14
2023-01-05T08:54:34.979Z,1005.03
2023-01-05T08:55:34.945Z,1005.07
2023-01-05T08:56:38.930Z,1005.11
2023-01-05T08:57:35.059Z,1005.17
2023-01-05T08:58:35.723Z,1005.15
2023-01-05T08:59:34.985Z,1005.16
2023-01-05T09:00:34.926Z,1005.19
2023-01-05T09:01:35.786Z,1005.18
2023-01-05T09:02:35.973Z,1005.22
2023-01-05T09:03:36.763Z,1005.19
2023-01-05T09:04:34.876Z,1005.27
2023-01-05T09:05:37.861Z,1005.22
2023-01-05T09:06:37.760Z,1005.26
2023-01-05T09:07:35.715Z,1005.25
2023-01-05T09:08:34.850Z,1005.25
2023-01-05T09:09:35.308Z,1005.28
2023-01-05T09:10:34.868Z,1005.24
2023-01-05T09:11:35.723Z,1005.32
2023-01-05T09:12:35.719Z,1005.32
2023-01-05T09:13:34.772Z,1005.31
2023-01-05T09:14:35.267Z,1005.31
2023-01-05T09:15:34.754Z,1005.32
2023-01-05T09:17:06.364Z,1005.37
2023-01-05T09:17:35.763Z,1005.29
2023-01-05T09:18:34.706Z,1005.35
2023-01-05T09:19:34.690Z,1005.30
2023-01-05T09:20:39.825Z,1005.29
2023-01-05T09:21:35.675Z,1005.35
2023-01-05T09:22:34.667Z,1005.34
2023-01-05T09:23:34.693Z,1005.33
2023-01-05T09:24:34.645Z,1005.39
2023-01-05T09:25:34.624Z,1005.37
2023-01-05T09:26:34.624Z,1005.39
2023-01-05T09:27:34.621Z,1005.42
2023-01-05T09:28:34.611Z,1005.40
2023-01-05T09:29:34.602Z,1005.42
2023-01-05T09:30:41.903Z,1005.40
2023-01-05T09:31:35.632Z,1005.46
2023-01-05T09:32:34.565Z,1005.47
2023-01-05T09:33:34.567Z,1005.48
2023-01-05T09:34:34.565Z,1005.47
2023-01-05T09:35:34.520Z,1005.53
2023-01-05T09:36:34.547Z,1005.53
2023-01-05T09:37:34.499Z,1005.53
2023-01-05T09:38:34.519Z,1005.57
2023-01-05T09:39:34.493Z,1005.57
2023-01-05T09:40:34.470Z,1005.57
2023-01-05T09:41:34.447Z,1005.57
2023-01-05T09:42:35.303Z,1005.57
2023-01-05T09:43:34.440Z,1005.65
2023-01-05T09:44:34.451Z,1005.66
2023-01-05T09:45:34.405Z,1005.67
2023-01-05T09:46:34.423Z,1005.75
2023-01-05T09:47:35.228Z,1005.70
2023-01-05T09:48:35.225Z,1005.68
2023-01-05T09:49:35.216Z,1005.75
2023-01-05T09:50:34.354Z,1005.73
2023-01-05T09:51:34.342Z,1005.75
2023-01-05T09:52:38.019Z,1005.75
2023-01-05T09:53:36.217Z,1005.80
2023-01-05T09:54:34.331Z,1005.79
2023-01-05T09:55:34.384Z,1005.77
2023-01-05T09:57:07.919Z,1005.79
2023-01-05T09:57:36.221Z,1005.82
2023-01-05T09:58:34.291Z,1005.84
2023-01-05T09:59:34.785Z,1005.81
2023-01-05T10:00:34.276Z,1005.81
2023-01-05T10:01:35.255Z,1005.82
2023-01-05T10:02:34.324Z,1005.82
2023-01-05T10:04:02.961Z,1005.77
2023-01-05T10:04:35.416Z,1005.84
2023-01-05T10:05:34.319Z,1005.86
2023-01-05T10:06:34.243Z,1005.85
2023-01-05T10:07:34.323Z,1005.84
2023-01-05T10:08:34.760Z,1005.85
2023-01-05T10:09:34.204Z,1005.88
2023-01-05T10:10:35.301Z,1005.92
2023-01-05T10:11:35.251Z,1005.89
2023-01-05T10:12:34.171Z,1005.90
2023-01-05T10:13:35.227Z,1005.88
2023-01-05T10:14:34.109Z,1005.93
2023-01-05T10:15:34.760Z,1005.90
2023-01-05T10:16:34.195Z,1005.90
2023-01-05T10:17:43.294Z,1005.96
2023-01-05T10:18:35.065Z,1005.95
2023-01-05T10:19:34.722Z,1005.96
2023-01-05T10:20:34.831Z,1005.98
2023-01-05T10:21:34.055Z,1006.00
2023-01-05T10:22:38.590Z,1005.96
2023-01-05T10:23:34.001Z,1005.96
2023-01-05T10:24:34.712Z,1005.90
2023-01-05T10:25:34.798Z,1005.97
2023-01-05T10:26:58.204Z,1005.94
2023-01-05T10:27:34.952Z,1005.97
2023-01-05T10:28:34.025Z,1006.02
2023-01-05T10:29:34.720Z,1005.99
2023-01-05T10:30:34.018Z,1006.03
2023-01-05T10:41:23.483Z,1006.09
2023-01-05T10:42:21.562Z,1006.09
2023-01-05T10:43:21.545Z,1006.10
2023-01-05T10:44:22.774Z,1006.06
2023-01-05T10:45:21.528Z,1006.12
2023-01-05T10:46:34.986Z,1006.13
2023-01-05T10:47:23.355Z,1006.17
2023-01-05T10:48:22.309Z,1006.16
2023-01-05T10:49:21.478Z,1006.15
2023-01-05T10:50:23.767Z,1006.18
2023-01-05T10:51:22.263Z,1006.16
2023-01-05T10:52:21.466Z,1006.19
2023-01-05T10:53:23.271Z,1006.19
2023-01-05T10:54:23.779Z,1006.27
2023-01-05T10:55:21.464Z,1006.27
2023-01-05T10:56:22.404Z,1006.25
2023-01-05T10:57:24.958Z,1006.26
2023-01-05T10:58:22.453Z,1006.23
2023-01-05T10:59:21.478Z,1006.29
2023-01-05T11:00:21.458Z,1006.23
2023-01-05T11:01:21.585Z,1006.22
2023-01-05T11:02:21.476Z,1006.25
2023-01-05T11:03:33.578Z,1006.23
2023-01-05T11:04:34.865Z,1006.18
2023-01-05T11:05:22.523Z,1006.25
2023-01-05T11:06:21.554Z,1006.27
2023-01-05T11:07:21.312Z,1006.23
2023-01-05T11:08:21.364Z,1006.34
2023-01-05T11:09:22.593Z,1006.24
2023-01-05T11:10:21.253Z,1006.25
2023-01-05T11:11:21.254Z,1006.26
2023-01-05T11:12:21.255Z,1006.23
2023-01-05T11:13:21.330Z,1006.23
2023-01-05T11:14:21.224Z,1006.25
2023-01-05T11:15:21.194Z,1006.25
2023-01-05T11:16:21.235Z,1006.10
2023-01-05T11:17:21.187Z,1006.21
2023-01-05T11:18:21.167Z,1006.24
2023-01-05T11:19:21.150Z,1006.10
2023-01-05T11:20:21.180Z,1006.13
2023-01-05T11:21:21.134Z,1006.12
2023-01-05T11:22:21.137Z,1006.13
2023-01-05T11:23:21.141Z,1006.14
2023-01-05T11:24:21.116Z,1006.10
2023-01-05T11:25:21.088Z,1006.16
2023-01-05T11:26:21.075Z,1006.11
2023-01-05T11:27:21.076Z,1006.14
2023-01-05T11:28:21.098Z,1006.14
2023-01-05T11:29:21.211Z,1006.14
2023-01-05T11:30:21.044Z,1006.19
2023-01-05T11:31:21.127Z,1006.20
2023-01-05T11:32:21.015Z,1006.23
2023-01-05T11:33:25.083Z,1006.27
2023-01-05T11:34:21.009Z,1006.28
2023-01-05T11:35:21.007Z,1006.21
2023-01-05T11:36:20.962Z,1006.21
2023-01-05T11:37:20.946Z,1006.27
2023-01-05T11:38:20.947Z,1006.26
2023-01-05T11:39:20.955Z,1006.20
2023-01-05T11:40:20.933Z,1006.19
2023-01-05T11:41:20.951Z,1006.20
2023-01-05T11:42:25.384Z,1006.24
2023-01-05T11:43:21.897Z,1006.25
2023-01-05T11:44:20.892Z,1006.23
2023-01-05T11:45:20.993Z,1006.20
2023-01-05T11:46:20.944Z,1006.15
2023-01-05T11:47:20.889Z,1006.21
2023-01-05T11:48:20.838Z,1006.21
2023-01-05T11:49:20.818Z,1006.18
2023-01-05T11:50:20.850Z,1006.17
2023-01-05T11:51:27.487Z,1006.16
2023-01-05T11:52:21.790Z,1006.13
2023-01-05T11:53:20.783Z,1006.20
2023-01-05T11:54:20.782Z,1006.20
2023-01-05T11:55:20.811Z,1006.20
2023-01-05T11:56:21.267Z,1006.20
2023-01-05T11:57:21.261Z,1006.21
2023-01-05T11:58:20.736Z,1006.24
2023-01-05T11:59:20.731Z,1006.17
2023-01-05T12:00:20.751Z,1006.18
2023-01-05T12:01:20.882Z,1006.14
2023-01-05T12:02:20.709Z,1006.19
2023-01-05T12:03:20.699Z,1006.17
2023-01-05T12:04:20.717Z,1006.12
2023-01-05T12:05:20.657Z,1006.15
2023-01-05T12:06:20.638Z,1006.12
2023-01-05T12:07:20.640Z,1006.10
2023-01-05T12:08:20.633Z,1006.11
2023-01-05T12:09:20.690Z,1006.10
2023-01-05T12:10:20.594Z,1006.12
2023-01-05T12:11:20.581Z,1006.15
2023-01-05T12:12:20.602Z,1006.12
2023-01-05T12:13:20.559Z,1006.13
2023-01-05T12:14:20.571Z,1006.16
2023-01-05T12:15:20.556Z,1006.19
2023-01-05T12:16:20.577Z,1006.15
2023-01-05T12:17:20.627Z,1006.19
2023-01-05T12:18:20.525Z,1006.15
2023-01-05T12:19:20.484Z,1006.11
2023-01-05T12:20:20.483Z,1006.08
2023-01-05T12:21:20.477Z,1006.14
2023-01-05T12:22:20.499Z,1006.17
2023-01-05T12:23:20.464Z,1006.14
2023-01-05T12:24:20.438Z,1006.14
2023-01-05T12:25:20.445Z,1006.14
2023-01-05T12:26:20.451Z,1006.14
2023-01-05T12:27:20.437Z,1006.13
2023-01-05T12:28:39.808Z,1006.14
2023-01-05T12:34:21.319Z,1006.21
2023-01-05T12:35:20.336Z,1006.18
2023-01-05T12:36:20.313Z,1006.18
2023-01-05T12:37:20.315Z,1006.21
2023-01-05T12:38:20.281Z,1006.19
2023-01-05T12:39:20.280Z,1006.17
2023-01-05T12:40:20.258Z,1006.23
2023-01-05T12:41:20.258Z,1006.25
2023-01-05T12:42:20.294Z,1006.25
2023-01-05T12:43:20.237Z,1006.26
2023-01-05T12:44:20.255Z,1006.20
2023-01-05T12:45:20.218Z,1006.24
2023-01-05T12:46:20.206Z,1006.28
2023-01-05T12:47:20.196Z,1006.27
2023-01-05T12:48:20.174Z,1006.28
2023-01-05T12:49:20.279Z,1006.26
2023-01-05T12:50:20.151Z,1006.32
2023-01-05T12:51:20.147Z,1006.33
2023-01-05T12:52:20.144Z,1006.28
2023-01-05T12:53:20.117Z,1006.25
2023-01-05T12:54:20.107Z,1006.28
2023-01-05T12:55:20.095Z,1006.26
2023-01-05T12:56:20.138Z,1006.24
2023-01-05T12:57:20.131Z,1006.29
2023-01-05T12:58:20.057Z,1006.25
2023-01-05T12:59:20.044Z,1006.25
2023-01-05T13:00:20.102Z,1006.26
2023-01-05T13:01:20.192Z,1006.26
2023-01-05T13:02:20.136Z,1006.31
2023-01-05T13:03:20.028Z,1006.32
2023-01-05T13:04:19.994Z,1006.26
2023-01-05T13:05:20.117Z,1006.35
2023-01-05T13:06:19.969Z,1006.31
2023-01-05T13:07:19.954Z,1006.37
2023-01-05T13:08:20.020Z,1006.32
2023-01-05T13:09:19.966Z,1006.30
2023-01-05T13:10:19.935Z,1006.31
2023-01-05T13:11:19.917Z,1006.34
2023-01-05T13:12:19.926Z,1006.31
2023-01-05T13:13:19.894Z,1006.33
2023-01-05T13:14:19.915Z,1006.30
2023-01-05T13:15:19.885Z,1006.30
2023-01-05T13:16:19.986Z,1006.26
2023-01-05T13:17:19.869Z,1006.27
2023-01-05T13:18:19.841Z,1006.26
2023-01-05T13:19:19.843Z,1006.31
2023-01-05T13:20:19.821Z,1006.27
2023-01-05T13:21:19.937Z,1006.23
2023-01-05T13:22:19.817Z,1006.29
2023-01-05T13:23:19.783Z,1006.25
2023-01-05T13:24:19.785Z,1006.24
2023-01-05T13:25:19.766Z,1006.26
2023-01-05T13:26:19.765Z,1006.25
2023-01-05T13:27:19.846Z,1006.22
2023-01-05T13:28:19.725Z,1006.24
2023-01-05T13:29:19.721Z,1006.20
2023-01-05T13:30:19.709Z,1006.24
2023-01-05T13:31:19.702Z,1006.23
2023-01-05T13:32:19.706Z,1006.17
2023-01-05T13:33:19.711Z,1006.20
2023-01-05T13:34:19.660Z,1006.24
2023-01-05T13:35:19.648Z,1006.24
2023-01-05T13:36:19.682Z,1006.24
2023-01-05T13:37:19.762Z,1006.27
2023-01-05T13:38:19.627Z,1006.32
2023-01-05T13:39:19.626Z,1006.27
2023-01-05T13:40:19.599Z,1006.28
2023-01-05T13:41:19.592Z,1006.30
2023-01-05T13:42:19.584Z,1006.26
2023-01-05T13:43:19.591Z,1006.26
2023-01-05T13:44:19.576Z,1006.25
2023-01-05T13:45:19.564Z,1006.27
2023-01-05T13:46:19.567Z,1006.25
2023-01-05T13:47:27.053Z,1006.23
2023-01-05T13:48:25.578Z,1006.23
2023-01-05T13:49:20.491Z,1006.28
2023-01-05T13:50:19.489Z,1006.27
2023-01-05T13:51:19.498Z,1006.31
2023-01-05T13:52:19.463Z,1006.34
2023-01-05T13:53:19.568Z,1006.34
2023-01-05T13:54:19.472Z,1006.31
2023-01-05T13:55:25.803Z,1006.37
2023-01-05T13:56:20.416Z,1006.37
2023-01-05T13:57:19.426Z,1006.34
2023-01-05T13:58:19.412Z,1006.39
2023-01-05T13:59:28.983Z,1006.35
2023-01-05T14:00:20.395Z,1006.36
2023-01-05T14:01:19.432Z,1006.36
2023-01-05T14:02:19.391Z,1006.34
2023-01-05T14:03:19.352Z,1006.34
2023-01-05T14:04:19.345Z,1006.40
2023-01-05T14:05:19.321Z,1006.35
2023-01-05T14:06:19.335Z,1006.35
2023-01-05T14:07:19.304Z,1006.32
2023-01-05T14:08:19.310Z,1006.34
2023-01-05T14:09:19.413Z,1006.32
2023-01-05T14:10:19.267Z,1006.32
2023-01-05T14:11:19.256Z,1006.32
2023-01-05T14:12:19.276Z,1006.30
2023-01-05T14:13:19.231Z,1006.31
2023-01-05T14:14:19.238Z,1006.31
2023-01-05T14:15:19.216Z,1006.32
2023-01-05T14:16:19.296Z,1006.32
2023-01-05T14:17:19.189Z,1006.28
2023-01-05T14:18:19.272Z,1006.30
2023-01-05T14:19:19.234Z,1006.32
2023-01-05T14:20:19.147Z,1006.31
2023-01-05T14:21:19.162Z,1006.31
2023-01-05T14:22:19.139Z,1006.30
2023-01-05T14:23:19.123Z,1006.28
2023-01-05T14:24:19.126Z,1006.24
2023-01-05T14:25:19.213Z,1006.30
2023-01-05T14:26:19.115Z,1006.33
2023-01-05T14:27:19.079Z,1006.35
2023-01-05T14:28:19.068Z,1006.35
2023-01-05T14:29:19.070Z,1006.31
2023-01-05T14:30:19.044Z,1006.31
2023-01-05T14:31:19.147Z,1006.31
2023-01-05T14:32:19.043Z,1006.32
2023-01-05T14:33:19.014Z,1006.35
2023-01-05T14:34:18.997Z,1006.31
2023-01-05T14:35:19.019Z,1006.31
2023-01-05T14:36:18.981Z,1006.34
2023-01-05T14:37:18.962Z,1006.35
2023-01-05T14:38:18.993Z,1006.37
2023-01-05T14:39:18.956Z,1006.36
2023-01-05T14:40:18.941Z,1006.38
2023-01-05T14:41:19.028Z,1006.36
2023-01-05T14:42:18.909Z,1006.37
2023-01-05T14:43:18.922Z,1006.38
2023-01-05T14:44:18.957Z,1006.34
2023-01-05T14:45:18.878Z,1006.33
2023-01-05T14:46:18.877Z,1006.35
2023-01-05T14:47:18.872Z,1006.35
2023-01-05T14:48:18.838Z,1006.34
2023-01-05T14:49:18.831Z,1006.36
2023-01-05T14:50:18.876Z,1006.38
2023-01-05T14:51:18.817Z,1006.46
2023-01-05T14:52:18.818Z,1006.45
2023-01-05T14:53:18.788Z,1006.53
2023-01-05T14:54:18.771Z,1006.54
2023-01-05T14:55:29.943Z,1006.54
2023-01-05T14:56:19.766Z,1006.56
2023-01-05T14:57:18.884Z,1006.55
2023-01-05T14:58:18.730Z,1006.53
2023-01-05T14:59:18.719Z,1006.55
2023-01-05T15:00:18.713Z,1006.59
2023-01-05T15:01:18.897Z,1006.59
2023-01-05T15:02:18.729Z,1006.58
2023-01-05T15:04:18.703Z,1006.55
2023-01-05T15:05:18.651Z,1006.54
2023-01-05T15:06:18.644Z,1006.55
2023-01-05T15:07:18.631Z,1006.56
2023-01-05T15:08:18.636Z,1006.56
2023-01-05T15:09:18.608Z,1006.57
2023-01-05T15:10:18.621Z,1006.59
2023-01-05T15:11:18.590Z,1006.57
2023-01-05T15:12:18.572Z,1006.58
2023-01-05T15:14:18.575Z,1006.60
2023-01-05T15:15:18.553Z,1006.56
2023-01-05T15:16:18.532Z,1006.58
2023-01-05T15:17:18.523Z,1006.56
2023-01-05T15:18:18.505Z,1006.56
2023-01-05T15:19:18.538Z,1006.55
2023-01-05T15:20:18.509Z,1006.55
2023-01-05T15:21:18.522Z,1006.56
2023-01-05T15:22:37.246Z,1006.56
2023-01-05T15:23:19.482Z,1006.57
2023-01-05T15:24:18.452Z,1006.56
2023-01-05T15:25:18.429Z,1006.58
2023-01-05T15:26:18.479Z,1006.60
2023-01-05T15:27:18.409Z,1006.56
2023-01-05T15:28:18.396Z,1006.56
2023-01-05T15:29:18.520Z,1006.58
2023-01-05T15:30:18.414Z,1006.57
2023-01-05T15:31:18.420Z,1006.54
2023-01-05T15:32:18.409Z,1006.54
2023-01-05T15:33:18.334Z,1006.53
2023-01-05T15:34:18.352Z,1006.51
2023-01-05T15:35:18.326Z,1006.56
2023-01-05T15:36:18.311Z,1006.60
2023-01-05T15:37:18.300Z,1006.57
2023-01-05T15:38:18.309Z,1006.58
2023-01-05T15:39:18.344Z,1006.56
2023-01-05T15:40:18.313Z,1006.54
2023-01-05T15:41:18.257Z,1006.53
2023-01-05T15:42:18.245Z,1006.50
2023-01-05T15:43:18.269Z,1006.49
2023-01-05T15:44:18.240Z,1006.52
2023-01-05T15:45:18.333Z,1006.56
2023-01-05T15:46:18.203Z,1006.50
2023-01-05T15:47:18.199Z,1006.49
2023-01-05T15:48:18.171Z,1006.53
2023-01-05T15:49:18.196Z,1006.57
2023-01-05T15:50:18.150Z,1006.59
2023-01-05T15:51:18.146Z,1006.59
2023-01-05T15:52:18.134Z,1006.60
2023-01-05T15:53:18.145Z,1006.58
2023-01-05T15:54:18.109Z,1006.60
2023-01-05T15:55:18.118Z,1006.61
2023-01-05T15:56:18.105Z,1006.62
2023-01-05T15:57:18.086Z,1006.57
2023-01-05T15:58:18.080Z,1006.58
2023-01-05T15:59:18.058Z,1006.54
2023-01-05T16:00:18.061Z,1006.59
2023-01-05T16:01:18.157Z,1006.59
2023-01-05T16:02:18.069Z,1006.59
2023-01-05T16:03:18.030Z,1006.57
2023-01-05T16:04:18.031Z,1006.56
2023-01-05T16:05:17.984Z,1006.55
2023-01-05T16:06:17.990Z,1006.56
2023-01-05T16:07:17.992Z,1006.56
2023-01-05T16:08:17.945Z,1006.56
2023-01-05T16:09:17.963Z,1006.55
2023-01-05T16:10:17.947Z,1006.57
2023-01-05T16:11:17.939Z,1006.57
2023-01-05T16:12:17.920Z,1006.57
2023-01-05T16:13:17.963Z,1006.61
2023-01-05T16:14:17.885Z,1006.62
2023-01-05T16:15:17.876Z,1006.67
2023-01-05T16:16:43.180Z,1006.65
2023-01-05T16:17:19.014Z,1006.62
2023-01-05T16:18:17.862Z,1006.64
2023-01-05T16:19:17.860Z,1006.69
2023-01-05T16:20:17.821Z,1006.66
2023-01-05T16:21:17.968Z,1006.66
2023-01-05T16:22:17.803Z,1006.63
2023-01-05T16:23:17.796Z,1006.65
2023-01-05T16:24:17.779Z,1006.59
2023-01-05T16:25:17.785Z,1006.61
2023-01-05T16:26:17.759Z,1006.61
2023-01-05T16:27:17.766Z,1006.59
2023-01-05T16:28:17.750Z,1006.60
2023-01-05T16:29:17.728Z,1006.58
2023-01-05T16:30:17.709Z,1006.55
2023-01-05T16:31:17.730Z,1006.59
2023-01-05T16:32:17.787Z,1006.58
2023-01-05T16:33:17.823Z,1006.56
2023-01-05T16:34:17.666Z,1006.57
2023-01-05T16:35:17.653Z,1006.54
2023-01-05T16:36:17.651Z,1006.54
2023-01-05T16:37:17.661Z,1006.56
2023-01-05T16:38:17.647Z,1006.53
2023-01-05T16:39:17.616Z,1006.54
2023-01-05T16:40:17.764Z,1006.52
2023-01-05T16:41:17.589Z,1006.56
2023-01-05T16:42:17.575Z,1006.53
2023-01-05T16:43:17.589Z,1006.54
2023-01-05T16:44:17.579Z,1006.52
2023-01-05T16:45:17.547Z,1006.53
2023-01-05T16:46:20.178Z,1006.55
2023-01-05T16:47:17.561Z,1006.50
2023-01-05T16:48:17.520Z,1006.49
2023-01-05T16:49:17.641Z,1006.48
2023-01-05T16:50:17.487Z,1006.51
2023-01-05T16:51:17.479Z,1006.55
2023-01-05T16:52:19.885Z,1006.48
2023-01-05T16:53:18.496Z,1006.42
2023-01-05T16:54:19.072Z,1006.44
2023-01-05T16:55:23.659Z,1006.40
2023-01-05T16:56:18.454Z,1006.42
2023-01-05T16:57:17.419Z,1006.42
2023-01-05T16:58:17.407Z,1006.46
2023-01-05T16:59:17.415Z,1006.47
2023-01-05T17:00:17.389Z,1006.46
2023-01-05T17:01:17.487Z,1006.48
2023-01-05T17:02:17.386Z,1006.46
2023-01-05T17:03:17.359Z,1006.44
2023-01-05T17:04:17.420Z,1006.43
2023-01-05T17:05:17.455Z,1006.43
2023-01-05T17:06:17.339Z,1006.45
2023-01-05T17:07:19.297Z,1006.45
2023-01-05T17:08:17.323Z,1006.44
2023-01-05T17:09:17.285Z,1006.39
2023-01-05T17:10:17.280Z,1006.39
2023-01-05T17:11:17.307Z,1006.38
2023-01-05T17:12:17.262Z,1006.38
2023-01-05T17:13:19.658Z,1006.38
2023-01-05T17:14:17.235Z,1006.39
2023-01-05T17:15:17.222Z,1006.37
2023-01-05T17:16:17.306Z,1006.36
2023-01-05T17:18:17.206Z,1006.45
2023-01-05T17:19:17.201Z,1006.43
2023-01-05T17:20:17.186Z,1006.42
2023-01-05T17:21:17.260Z,1006.41
2023-01-05T17:22:17.169Z,1006.40
2023-01-05T17:23:17.152Z,1006.40